Huvudsida
METAR-TAF:

METAR-TAF

Flygplatser :

Sundsvall Timrå Airport

Sundsvall-Härnösand, Sverige

latitud: 62-32N, longitud: 017-27E, höjd: 4 m

Aktuellt väderrapport

Denna rapport gjordes för 35 minuter sedan, klockan 02:20 UTC
Vind 7 kt från nordväst
Temperatur 5°C
Fuktighet 87%
Tryck 1016 hPa
Sikt 10 km eller mer

METAR: ESNN 190220Z AUTO 31007KT 9999 NCD 05/03 Q1016

Tid: 04:55 (02:55 UTC)

Väderprognos

Denna rapport gjordes för 9 timmar och 25 minuter sedan, klockan 17:30 UTC
Prognos gäller från 18 kl. 18 UTC till 18 kl. 21 UTC
Vind 9 kt från nordväst
Sikt 10 km eller mer
Spridda moln på en höjd av 2500 ft
Sannolikhet 40%
från 18 kl. 18 UTC till 18 kl. 21 UTC
Brutna moln på en höjd av 4000 ft, Cumulonimbus.
regnskurar

TAF: ESNN 181730Z 1818/1821 32009KT 9999 SCT025 PROB40 1818/1821 SHRA BKN040CB

Aktuella väderrapporter och prognoser från 4000 flygplatser (METAR- och TAF-rapporter).

De tillgängliga stationerna syns som gula och röda prickar på kartan.

För musen över prickarna för att se namnen på stationerna.

Klicka sedan för att få väderrapporter och prognoser.

För att ändra kartan: Klicka på de gröna knapparna med ett svart kors på för att zooma in; den gröna knappen med ett streck på för att zooma ut; eller på de gröna pilarna för angränsande kartor.


METAR-TAF: